Timeline UpdatesTrip UpdatesNews PostsPvt PostsTravel TipsAdmin PostsConv PostsFollowed PostsChat RequestsBlog PostsPNR Posts

Disclaimer
Search
 
 
Mon Sep 22, 2014 13:45:18 ISTHomeTrainsΣChainsAtlasPNRForumGalleryNewsFAQTripsMembersLoginFeedback
No Recent News for this Train
Other Trains in the News **new
Latest...
Change in timings ex - Originating and Terminating Station ex 01.09.2014
Sun Aug 31, 2014 (07:08AM)
⇐ Return Journey: Train# 15484

14083⇒15483/Sikkim Mahananda Express

Time-Table HAS CHANGED.
Sep 03 (10:32AM)
Change Departure Station:
Change Arrival Station:
Post a Train Travel TipPost a Train Travel Tip **new
Post a Comment/Question/Picture/VideoPost a Comment/Question/Picture/Video
Pantry/Catering
✓ Pantry Car Avbl
✓ Catering Avbl
RSA - Rake Sharing
Rake/Coach Composition
LOCO-SLR-GS-GS-GS-AB-B1-PC-S11-S10-S9-S8-S7-S6-S5-S4-S3-S2-S1-GS-GS-GS-SLR
Loco
SGUJ WDP-4 (APDJ to PNBE), GZB/MGS WAP-4 (PNBE to DLI)
News    PNR    Forum    Time-Table    Availability    Fare Chart    Map    Arr/Dep History    Trips    Gallery    ΣChains    X/O    Timeline    
Travel Time: 36h 50m    56 halts    Distance: 1653 km    Avg Speed: 44 km/hr
Type: Mail/Express
Zone: NFR/Northeast Frontier
Departs @ 09:50 (Avg 2h 36m late)
Platform# 1
SMTWTFS
Alipur Duar Junction/APDJ 
Arrives @ 22:40 +1 night (Avg 3h 36m late)
Platform# 11
SMTWTFS
Old Delhi Junction/DLI 

56 halts. 292 intermediate Stations between Alipur Duar Junction and Old Delhi Junction

Show ALL intermediate Stations  Show Old Time-Table

#CodeStation NameX/OArrivesAvgDepartsAvgHaltPFDay#KmSpeedElevZoneAddress
1APDJAlipur Duar Junction (3)»  -09:50+2:36110.07053mNFRDist - Alipurduar, West Bengal
2HSAHasimara (3)X  10:20+2:4210:22+2:432m--134.866123mNFRDist - Alipurduar, West Bengal
3DLODalgaon (3)  10:46 10:45+2:4610:47+2:471 2m1160.154 NFRDist : Alipurduar, West Bengal
4BNVBinnaguri (3)  11:01 10:57+2:4811:02+2:481 5m--169.165132mNFRDist : jalpaiguri, West Bengal
5NMZNew Mal Junction (3)  11:43+2:4911:48+2:485m--1113.443161mNFRDist - Jalpaiguri, West Bengal
6SGUJSiliguri Junction (5)X  12:55+2:4913:00+2:525m--1161.212120mNFRDist-Darjeeling Siliguri-734001, West Bengal
7NJPNew Jalpaiguri Junction (8)X  13:35+2:5413:55+2:5720m31168.577114mNFRCity-Siliguri . Dist-Jalpaiguri, West Bengal
8AUBAluabari Road (2)O  14:39+3:0814:41+3:082m21225.2630mNFRDist - uttar Dinajpur, West Bengal
9KNEKishanGanj (3)O  15:10+3:0615:15+3:065m21255.87452mNFRKishanganj, Bihar
10DLKDalkhola (3)X  15:39 15:38+3:1415:40+3:151 2m101284.35844mNFRDalkola, West Bengal
11BOEBarsoi Junction (3)X  16:10+3:2816:12+3:282m--1313.45737mNFRdist- katihar, Bihar
12AZRAzamnagar Road (3)X  16:27 16:26+3:2416:28+3:141 2m--1326.73234mNFRAzamnagar, Bihar
13LAVLabha (2)  17:10 17:09+3:2517:11+3:261 2m11348.41529mNFRDist : Katihar, Bihar
14KIRKatihar Junction (7)X  18:45+2:4919:00+2:4315m51371.44335mNFRKatihar 854105, Bihar
15SMOSemapurX  19:15 19:16+2:5919:16 19:18+2:591 2m--1382.97235mECRKatihar, Bihar
16CRRKaragola Road  19:26 19:27+3:0919:27 19:29+3:131 2m--1393.68536mECRLachhmipur, Bihar
17KUEKurselaX  19:40 19:41+3:1219:41 19:43+3:151 2m--1410.65131mECRNH 31, Bihar
18NNANaugachia (3)X  20:04 20:05+3:2520:05 20:07+3:261 2m--1429.16837mECRBhagalpur, Bihar
19THBThana Bihpur Junction (3)  20:20 20:21+3:2820:21 20:23+3:291 2m--1445.05739mECRThana Bihpur, Bihar
20NNRNarayanpur (2)  20:30 20:31+3:1920:31 20:33+3:301 2m--1452.75839mECRNarayanpur, Bihar
21PSRPasraha (3)  20:44 20:45+3:2520:45 20:47+3:321 2m--1464.35741mECRPasraha, Bihar
22MSKMahes Khunt (2)X  20:59 21:00+3:3521:00 21:02+3:391 2m--1476.66237mECRMaheshkhunt, Bihar
23MNEMansi Junction (4)X  21:11 21:12+3:4221:12 21:14+3:451 2m--1487.05343mECRMansi, Bihar
24KGGKhagaria Junction (3)X  21:28 21:24+3:3921:29+3:411 5m--1495.85743mECRKhagaria, Bihar
25SKJSahibpur Kamal Junction (2)  21:41 21:42+3:4521:42 21:59+3:411 17m--1508.26541mECRShahpur Kamal, Bihar
26LKNLakhminia (3)X  21:56 22:08+3:4421:57 22:10+3:461 2m--1517.98245mECRBegusarai, Bihar
27BGSBegusarai (3)  22:27 22:23+3:2422:28+3:241 5m--1535.72246mECRBegusarai, Bihar
28BJUBarauni Junction (9)X  23:05+3:1423:10+3:155m11549.22849mECRBegusarai, Bihar
29MKAMokama Junction (4)  23:54+3:2723:56+3:282m31569.88848mECRPatna, Bihar
30BKPBakhtiyarpur Junction (5)X  00:26+3:3200:28+3:342m--2613.74851mECRPatna, Bihar
31PNBEPatna Junction (10)X  01:25+2:5001:50+2:5625m42659.13557mECRPatna 800001, Bihar
32DNRDanapur (5)  02:06+3:1802:08+3:192m--2668.59158mECRKhagaul, Bihar
33ARAAra Junction (3)X  02:34+3:4102:36+3:422m--2708.07163mECRarrah( 06182-233411), Bihar
34BXRBuxar (3)X  03:34+3:1503:36+3:112m--2776.54767mECRBuxar, Bihar
35MGSMughal Sarai Junction (8)  05:35+2:3505:45+2:4410m42870.44783mECRMughalsarai 232101, Uttar Pradesh
36MZPMirzapur (3)X  07:09 07:05+3:4607:10+3:501 5m--2933.64488mNCRMirzapur, Uttar Pradesh
37BDLVindhyachal (3)  07:21 07:20+3:4407:22+3:471 2m--2940.97788mNCRMirzapur, Uttar Pradesh
38NYNNaini Junction (4)  08:20+4:1108:22+4:122m221015.72498mNCRAllahabad, Uttar Pradesh
39ALDAllahabad Junction (10)XOO  08:40+4:2808:55+4:2715m321022.865100mNCRAllahabad 211003, Uttar Pradesh
40FTPFatehpur (3)  10:44 10:42+3:4110:45+3:421 3m--21139.552120mNCRFatehpur, Uttar Pradesh
41CNBKanpur Central (10)X  12:15+3:4412:25+3:4710m521217.130128mNCRKANPUR-208 001, Uttar Pradesh
42PNKPanki (3)XO  12:49 12:48+3:1112:50+3:151 2m--21228.638129mNCRKANPUR-208 020, Uttar Pradesh
43RURARura (4)  13:43 13:42+2:4413:44+2:451 2m--21261.460137mNCRJhinjhak, Uttar Pradesh
44JJKJhinjhak (3)  14:04 14:03+2:4114:05+2:431 2m321280.574140mNCRAuraiya, Uttar Pradesh
45PHDPhaphund (4)  14:22 14:21+3:2214:23+3:241 2m--21300.367146mNCRdist. Auraiya, Uttar Pradesh
46ULDAchalda (3)X  14:39 14:38+2:4914:40+2:551 2m--21317.169147mNCRDist. Auraiya(05688-1072), Uttar Pradesh
47BNTBharthana (3)X  14:58 14:57+2:4714:59+2:521 2m--21336.663147mNCRBharthana, Uttar Pradesh
48ETWEtawah (5)  15:22 15:18+3:1815:23+3:191 5m221356.581154mNCRDistt. Etawah, Uttar Pradesh
49SKBShikohabad Junction (4)  16:08 16:04+3:3616:09+3:391 5m321411.970166mNCRDistrict Firozabad, Uttar Pradesh
50FZDFirozabad (4)XO  16:30 16:26+3:3416:31+3:361 5m321431.816164mNCRFirozabad, Uttar Pradesh
51TDLTundla Junction (5)XO  17:35+3:1317:45+3:1210m221448.373167mNCRDistt.Firozabad, Uttar Pradesh
52JLSJalesar Road (1)X  18:09 18:08+2:5918:10+3:011 2m121476.267172mNCRMDR 106W, Uttar Pradesh
53HRSHathras Junction (3)X  18:32 18:28+4:1418:33+4:141 5m--21496.382183mNCRMahamaya Nagar(05722-242803), Uttar Pradesh
54ALJNAligarh Junction (4)X  18:55+3:2719:00+3:265m221526.449192mNCRAligarh, Uttar Pradesh
55KRJKhurja Junction (4)XO  19:53+2:5219:58+2:505m--21569.935199mNCRBulandshahr, Uttar Pradesh
56GZBGhaziabad Junction (6)X  21:45+2:4621:47+2:462m321632.651217mNRGhaziabad, Uttar Pradesh
57DSAShahdara Junction (4)  22:04 22:03+4822:05+481 2m--21646.211212mNRCircular Rd, Delhi NCT
58DLIOld Delhi Junction (16)•  22:40+3:36-1121652.5-219mNRNear Chandni Chowk Metro Station, Delhi NCT
Scroll to Top
Scroll to Bottom